KAKO/AKO METAR and TAF weather

Enter ICAO airport designator
Station Type Date Time Source
KAKO METAR 2021/03/03 20:53 UTC NOAA

KAKO 032053Z AUTO 18005KT 10SM CLR 16/M13 A3001 RMK AO2 SLP141 T01611128 56012


Station Type Date Time Source
KAKO Decoded METAR 2021/03/03 20:53 UTC NOAA

COLORADO PLAINS REGIONAL, CO, United States (KAKO) 40-10N 103-13W 1421M
Mar 03, 2021 - 03:53 PM EST / 2021.03.03 2053 UTC
Wind: from the S (180 degrees) at 6 MPH (5 KT):0
Visibility: 10 mile(s):0
Sky conditions: clear
Temperature: 61.0 F (16.1 C)
Dew Point: 9.0 F (-12.8 C)
Relative Humidity: 12%
Pressure (altimeter): 30.01 in. Hg (1016 hPa)
Pressure tendency: 0.04 inches (1.2 hPa) lower than three hours ago
ob: KAKO 032053Z AUTO 18005KT 10SM CLR 16/M13 A3001 RMK AO2 SLP141 T01611128 56012
cycle: 21

Station Type Date Time Source
KAKO TAF UTC NOAA

Error!

Example: see airport list